Thunder radar more information blitzortung!


Radar de pluja more information rain snow radar


Visita la nostra xarxa de llocs de meteo:

Template documentation
and downloads

And another site



No particular awareness of the weather is required.    There are no Weather-warnings

Pagina Historial Weather Underground text

Diari Resum Octubre 6, 2017 Unitats:  Mètric    Imperial   Tant
« Previous Dia
SegĂźent Dia »
Diari Setmana Mensual Anual Personalitzada
  Maxima: Minima: Media:
Temperatura: 28.1 °C 15.9 °C 21.7 °C
Punt de rosada: 17.2 °C 13.0 °C 15.4 °C
Humitat: 90 % 41 % 69 %
Wind Speed: 20.4 km/h 0.0 km/h 5.6 km/h
RĂ fegues de vent: 20.4 km/h - -
Vent:- - SE
Pression baro: 1019.9 hPa 1016.8 hPa -
Precipitacions: 0.0 mm    
Historical Graphs
 
 
Dades de taula per Octubre 6, 2017
Temps Temperatura Punt de rosada Pression baro Vent Wind Speed RĂ fegues de vent Humitat Rainfall Rate (Hourly)
00:00 18.4 °C 16.2 °C 1017.8 hPa Calm   3.2 km/h 87 % 0.0 mm
00:04 19.8 °C 17.2 °C 1018.8 hPa West 5.0 km/h 5.0 km/h 85 % 0.0 mm
00:09 19.8 °C 17.2 °C 1018.8 hPa WSW 5.6 km/h 5.6 km/h 85 % 0.0 mm
00:10 18.3 °C 16.1 °C 1017.8 hPa NNE 1.6 km/h 3.2 km/h 87 % 0.0 mm
00:14 19.8 °C 17.2 °C 1017.8 hPa West 4.2 km/h 4.2 km/h 85 % 0.0 mm
00:20 18.2 °C 16.0 °C 1017.8 hPa Calm   3.2 km/h 87 % 0.0 mm
00:30 18.0 °C 15.8 °C 1017.8 hPa Calm   1.6 km/h 87 % 0.0 mm
00:40 17.9 °C 15.9 °C 1017.8 hPa Calm   1.6 km/h 88 % 0.0 mm
00:50 17.8 °C 15.8 °C 1017.8 hPa Calm   3.2 km/h 88 % 0.0 mm
01:00 17.6 °C 15.4 °C 1017.8 hPa NNE 1.6 km/h 3.2 km/h 87 % 0.0 mm
01:10 17.5 °C 15.3 °C 1017.8 hPa NNW 1.6 km/h 6.4 km/h 87 % 0.0 mm
01:20 17.3 °C 15.3 °C 1017.8 hPa WNW 1.6 km/h 3.2 km/h 88 % 0.0 mm
01:30 17.2 °C 15.2 °C 1016.8 hPa WSW 1.6 km/h 3.2 km/h 88 % 0.0 mm
01:40 17.1 °C 15.1 °C 1016.8 hPa SW 1.6 km/h 1.6 km/h 88 % 0.0 mm
01:50 17.0 °C 15.2 °C 1017.8 hPa SW 3.2 km/h 4.8 km/h 89 % 0.0 mm
02:00 17.0 °C 15.3 °C 1017.8 hPa Calm   3.2 km/h 90 % 0.0 mm
02:10 16.8 °C 15.2 °C 1017.8 hPa Calm   1.6 km/h 90 % 0.0 mm
02:20 16.4 °C 14.6 °C 1017.8 hPa Calm     89 % 0.0 mm
02:30 16.3 °C 14.5 °C 1017.8 hPa Calm   1.6 km/h 89 % 0.0 mm
02:40 15.9 °C 14.1 °C 1017.8 hPa Calm   4.8 km/h 89 % 0.0 mm
02:50 16.0 °C 14.2 °C 1017.8 hPa Calm   1.6 km/h 89 % 0.0 mm
03:00 15.9 °C 14.1 °C 1017.8 hPa Calm     89 % 0.0 mm
03:10 15.9 °C 13.9 °C 1017.8 hPa Calm     88 % 0.0 mm
03:20 16.0 °C 14.0 °C 1017.8 hPa WNW 1.6 km/h 1.6 km/h 88 % 0.0 mm
03:30 16.1 °C 13.9 °C 1017.8 hPa Calm   3.2 km/h 87 % 0.0 mm
03:40 16.6 °C 14.4 °C 1017.8 hPa North 3.2 km/h 4.8 km/h 87 % 0.0 mm
03:50 17.2 °C 14.7 °C 1017.8 hPa NE 3.2 km/h 3.2 km/h 85 % 0.0 mm
04:00 17.4 °C 14.5 °C 1017.8 hPa Calm   1.6 km/h 83 % 0.0 mm
04:10 17.4 °C 14.5 °C 1017.8 hPa Calm   3.2 km/h 83 % 0.0 mm
04:20 18.0 °C 14.9 °C 1017.8 hPa West 1.6 km/h 3.2 km/h 82 % 0.0 mm
04:30 18.9 °C 15.2 °C 1017.8 hPa Calm   1.6 km/h 79 % 0.0 mm
04:40 19.1 °C 14.9 °C 1017.8 hPa West 1.6 km/h 3.2 km/h 77 % 0.0 mm
04:50 19.5 °C 15.2 °C 1017.8 hPa Calm   3.2 km/h 76 % 0.0 mm
05:00 20.4 °C 15.6 °C 1017.8 hPa South 1.6 km/h 3.2 km/h 74 % 0.0 mm
05:20 20.5 °C 15.3 °C 1018.8 hPa NE 3.2 km/h 4.8 km/h 72 % 0.0 mm
05:30 20.4 °C 14.3 °C 1018.8 hPa ENE 3.2 km/h 8.0 km/h 68 % 0.0 mm
05:40 21.0 °C 15.1 °C 1018.8 hPa Calm   3.2 km/h 69 % 0.0 mm
10:44 21.1 °C 15.2 °C 1018.8 hPa West 5.6 km/h 5.6 km/h 69 % 0.0 mm
10:45 21.2 °C 15.3 °C 1018.8 hPa WSW 5.6 km/h 5.6 km/h 69 % 0.0 mm
10:47 21.2 °C 15.3 °C 1018.8 hPa WNW 3.7 km/h   69 % 0.0 mm
10:52 21.4 °C 15.2 °C 1018.8 hPa ENE 3.7 km/h 3.7 km/h 68 % 0.0 mm
10:57 21.2 °C 14.6 °C 1018.8 hPa NNE 7.4 km/h 7.4 km/h 66 % 0.0 mm
11:02 21.4 °C 15.0 °C 1018.8 hPa ENE 5.6 km/h 6.1 km/h 67 % 0.0 mm
11:07 21.4 °C 14.6 °C 1018.8 hPa East 5.6 km/h 5.6 km/h 65 % 0.0 mm
11:12 21.4 °C 14.6 °C 1018.8 hPa NE 5.6 km/h 6.9 km/h 65 % 0.0 mm
11:17 21.6 °C 14.7 °C 1018.8 hPa NNE 8.7 km/h 8.7 km/h 65 % 0.0 mm
11:22 21.4 °C 14.3 °C 1018.8 hPa NNE 7.4 km/h 7.4 km/h 64 % 0.0 mm
11:27 21.7 °C 14.8 °C 1018.8 hPa ESE 3.9 km/h 3.9 km/h 65 % 0.0 mm
11:32 22.0 °C 14.1 °C 1018.8 hPa SSE 2.3 km/h 4.2 km/h 61 % 0.0 mm
11:37 22.5 °C 15.1 °C 1018.8 hPa SW 3.7 km/h   63 % 0.0 mm
11:42 22.8 °C 15.4 °C 1018.8 hPa North 1.9 km/h 1.9 km/h 63 % 0.0 mm
11:47 22.7 °C 15.1 °C 1018.8 hPa ENE 7.4 km/h 7.4 km/h 62 % 0.0 mm
11:52 22.4 °C 14.5 °C 1018.8 hPa ENE 7.4 km/h 7.4 km/h 61 % 0.0 mm
11:57 22.6 °C 14.9 °C 1018.8 hPa ENE 7.4 km/h 7.4 km/h 62 % 0.0 mm
12:02 22.5 °C 14.6 °C 1018.8 hPa NE 3.7 km/h 5.0 km/h 61 % 0.0 mm
12:07 22.8 °C 14.9 °C 1018.8 hPa WSW 3.9 km/h 3.9 km/h 61 % 0.0 mm
12:12 23.3 °C 15.3 °C 1018.8 hPa NNW 3.7 km/h 3.7 km/h 61 % 0.0 mm
12:17 23.8 °C 15.6 °C 1018.8 hPa WNW 5.8 km/h 5.8 km/h 60 % 0.0 mm
12:22 23.6 °C 15.4 °C 1018.8 hPa ESE 7.9 km/h 7.9 km/h 60 % 0.0 mm
12:27 23.6 °C 15.1 °C 1018.8 hPa West 4.7 km/h 4.7 km/h 59 % 0.0 mm
12:37 23.6 °C 15.1 °C 1018.8 hPa SW 6.1 km/h 6.1 km/h 59 % 0.0 mm
12:42 23.8 °C 15.1 °C 1018.8 hPa WSW 7.4 km/h 7.4 km/h 58 % 0.0 mm
12:47 24.1 °C 15.1 °C 1017.8 hPa SSE 3.7 km/h 3.9 km/h 57 % 0.0 mm
12:52 24.5 °C 14.9 °C 1017.8 hPa SE 5.8 km/h 5.8 km/h 55 % 0.0 mm
12:57 24.6 °C 15.2 °C 1017.8 hPa SW 5.6 km/h 5.6 km/h 56 % 0.0 mm
13:02 24.6 °C 14.9 °C 1017.8 hPa Calm     55 % 0.0 mm
13:07 25.0 °C 14.8 °C 1017.8 hPa South 3.7 km/h 3.7 km/h 53 % 0.0 mm
13:12 25.4 °C 15.1 °C 1017.8 hPa SSE 5.6 km/h 5.6 km/h 53 % 0.0 mm
13:17 25.5 °C 15.5 °C 1017.8 hPa NW 7.4 km/h 7.4 km/h 54 % 0.0 mm
13:22 25.0 °C 14.4 °C 1017.8 hPa NNE 5.6 km/h 5.6 km/h 52 % 0.0 mm
13:27 25.0 °C 14.4 °C 1017.8 hPa NE 7.4 km/h 7.4 km/h 52 % 0.0 mm
13:32 24.8 °C 14.6 °C 1017.8 hPa ENE 5.8 km/h 5.8 km/h 53 % 0.0 mm
13:37 24.8 °C 14.3 °C 1017.8 hPa SE 7.4 km/h   52 % 0.0 mm
13:42 25.6 °C 15.0 °C 1017.8 hPa South 3.7 km/h 3.7 km/h 52 % 0.0 mm
13:47 25.1 °C 13.3 °C 1017.8 hPa SSE 7.4 km/h 7.4 km/h 48 % 0.0 mm
13:52 25.1 °C 13.6 °C 1017.8 hPa ESE 3.7 km/h 3.7 km/h 49 % 0.0 mm
13:57 25.1 °C 13.6 °C 1017.8 hPa NNE 5.6 km/h 5.6 km/h 49 % 0.0 mm
14:02 25.3 °C 14.1 °C 1017.8 hPa NW 7.4 km/h 7.4 km/h 50 % 0.0 mm
14:07 25.6 °C 14.4 °C 1017.8 hPa SW 7.4 km/h 7.4 km/h 50 % 0.0 mm
14:12 26.2 °C 14.9 °C 1017.8 hPa WSW 8.7 km/h 8.7 km/h 50 % 0.0 mm
14:17 26.4 °C 14.8 °C 1016.8 hPa South 7.4 km/h 7.4 km/h 49 % 0.0 mm
14:27 26.6 °C 14.3 °C 1016.8 hPa NW 7.4 km/h 7.4 km/h 47 % 0.0 mm
14:32 26.7 °C 14.1 °C 1017.8 hPa East 5.6 km/h 5.6 km/h 46 % 0.0 mm
14:37 26.4 °C 14.2 °C 1017.8 hPa South 3.7 km/h 3.7 km/h 47 % 0.0 mm
14:42 27.2 °C 14.2 °C 1017.8 hPa SSE 4.7 km/h 4.7 km/h 45 % 0.0 mm
14:47 27.1 °C 14.2 °C 1017.8 hPa SW 5.8 km/h 5.8 km/h 45 % 0.0 mm
14:52 27.1 °C 14.2 °C 1017.8 hPa SW 9.3 km/h 9.3 km/h 45 % 0.0 mm
14:53 27.0 °C 13.7 °C 1017.8 hPa East 7.4 km/h 7.4 km/h 44 % 0.0 mm
14:58 27.3 °C 13.6 °C 1017.8 hPa NE 5.6 km/h 5.6 km/h 43 % 0.0 mm
15:03 27.9 °C 14.5 °C 1017.8 hPa NNW 7.4 km/h 7.4 km/h 44 % 0.0 mm
15:08 28.0 °C 14.6 °C 1017.8 hPa SW 4.7 km/h 4.7 km/h 44 % 0.0 mm
15:13 27.6 °C 14.2 °C 1017.8 hPa WSW 9.3 km/h 9.3 km/h 44 % 0.0 mm
15:18 27.8 °C 14.1 °C 1017.8 hPa West 9.3 km/h 9.3 km/h 43 % 0.0 mm
15:23 28.1 °C 14.0 °C 1017.8 hPa NE 4.7 km/h 4.7 km/h 42 % 0.0 mm
15:28 28.0 °C 13.5 °C 1017.8 hPa ESE 4.7 km/h 4.7 km/h 41 % 0.0 mm
15:33 27.4 °C 13.0 °C 1017.8 hPa ENE 9.3 km/h 9.3 km/h 41 % 0.0 mm
15:38 26.5 °C 13.9 °C 1017.8 hPa ESE 14.5 km/h 14.5 km/h 46 % 0.0 mm
15:43 25.8 °C 14.6 °C 1017.8 hPa East 13.0 km/h 13.0 km/h 50 % 0.0 mm
15:48 25.3 °C 14.4 °C 1017.8 hPa East 13.0 km/h 13.0 km/h 51 % 0.0 mm
15:53 25.3 °C 14.7 °C 1017.8 hPa ESE 14.8 km/h 14.8 km/h 52 % 0.0 mm
15:58 25.1 °C 14.8 °C 1017.8 hPa SE 16.7 km/h 16.7 km/h 53 % 0.0 mm
16:03 24.8 °C 15.4 °C 1017.8 hPa East 14.0 km/h 14.0 km/h 56 % 0.0 mm
16:08 24.8 °C 15.7 °C 1017.8 hPa ESE 18.5 km/h 18.5 km/h 57 % 0.0 mm
16:13 24.5 °C 15.7 °C 1017.8 hPa SSE 16.7 km/h 16.7 km/h 58 % 0.0 mm
16:18 24.3 °C 15.8 °C 1017.8 hPa East 20.4 km/h 20.4 km/h 59 % 0.0 mm
16:23 24.1 °C 15.8 °C 1017.8 hPa SE 14.8 km/h 14.8 km/h 60 % 0.0 mm
16:28 24.1 °C 15.8 °C 1016.8 hPa SE 16.7 km/h 16.7 km/h 60 % 0.0 mm
16:33 24.0 °C 15.8 °C 1016.8 hPa ESE 15.6 km/h 15.6 km/h 60 % 0.0 mm
16:38 24.2 °C 15.9 °C 1016.8 hPa SSE 7.4 km/h 7.4 km/h 60 % 0.0 mm
16:43 23.8 °C 16.1 °C 1017.8 hPa East 13.0 km/h 13.0 km/h 62 % 0.0 mm
16:48 23.8 °C 16.3 °C 1017.8 hPa ESE 13.0 km/h 13.0 km/h 63 % 0.0 mm
16:53 23.7 °C 16.5 °C 1017.8 hPa ESE 14.8 km/h 14.8 km/h 64 % 0.0 mm
16:58 23.6 °C 16.6 °C 1017.8 hPa ENE 11.1 km/h 11.1 km/h 65 % 0.0 mm
17:03 23.6 °C 16.6 °C 1017.8 hPa ESE 9.3 km/h 9.3 km/h 65 % 0.0 mm
17:08 23.8 °C 16.8 °C 1017.8 hPa ENE 8.7 km/h 8.7 km/h 65 % 0.0 mm
17:13 23.8 °C 16.6 °C 1017.8 hPa ENE 7.4 km/h 7.4 km/h 64 % 0.0 mm
17:18 23.9 °C 16.7 °C 1017.8 hPa ESE 9.3 km/h 9.3 km/h 64 % 0.0 mm
17:23 23.8 °C 16.8 °C 1017.8 hPa East 14.8 km/h 14.8 km/h 65 % 0.0 mm
17:28 23.7 °C 16.7 °C 1016.8 hPa ENE 11.1 km/h 11.1 km/h 65 % 0.0 mm
17:33 23.8 °C 16.8 °C 1016.8 hPa ESE 7.4 km/h 7.4 km/h 65 % 0.0 mm
17:38 23.7 °C 16.9 °C 1016.8 hPa East 14.8 km/h 14.8 km/h 66 % 0.0 mm
17:43 23.6 °C 16.9 °C 1016.8 hPa ENE 7.4 km/h 7.4 km/h 66 % 0.0 mm
17:48 23.5 °C 16.8 °C 1016.8 hPa East 9.3 km/h 9.3 km/h 66 % 0.0 mm
17:53 23.4 °C 16.9 °C 1016.8 hPa NE 9.3 km/h 9.3 km/h 67 % 0.0 mm
17:58 23.3 °C 16.8 °C 1016.8 hPa ESE 9.3 km/h 9.3 km/h 67 % 0.0 mm
18:03 23.3 °C 17.1 °C 1016.8 hPa ENE 7.4 km/h 7.4 km/h 68 % 0.0 mm
18:08 23.1 °C 17.1 °C 1016.8 hPa ENE 11.1 km/h 11.1 km/h 69 % 0.0 mm
18:13 22.9 °C 16.9 °C 1017.8 hPa ESE 13.0 km/h 13.0 km/h 69 % 0.0 mm
18:18 22.7 °C 16.7 °C 1017.8 hPa ENE 9.3 km/h 9.3 km/h 69 % 0.0 mm
18:24 22.7 °C 16.9 °C 1017.8 hPa ESE 9.3 km/h 9.3 km/h 70 % 0.0 mm
18:34 22.5 °C 16.8 °C 1016.8 hPa NNE 7.4 km/h 7.4 km/h 70 % 0.0 mm
18:39 22.5 °C 16.8 °C 1016.8 hPa East 13.0 km/h 13.0 km/h 70 % 0.0 mm
18:44 22.4 °C 16.9 °C 1017.8 hPa ENE 6.4 km/h 6.4 km/h 71 % 0.0 mm
18:49 22.2 °C 16.7 °C 1017.8 hPa ENE 7.4 km/h 7.4 km/h 71 % 0.0 mm
18:54 22.2 °C 16.7 °C 1017.8 hPa East 9.7 km/h 9.7 km/h 71 % 0.0 mm
18:59 22.1 °C 16.6 °C 1017.8 hPa East 7.4 km/h 7.4 km/h 71 % 0.0 mm
19:04 22.0 °C 16.5 °C 1017.8 hPa ESE 9.3 km/h 9.3 km/h 71 % 0.0 mm
19:09 21.9 °C 16.6 °C 1017.8 hPa East 5.6 km/h 5.6 km/h 72 % 0.0 mm
19:14 21.8 °C 16.5 °C 1017.8 hPa ESE 7.4 km/h 7.4 km/h 72 % 0.0 mm
19:19 21.7 °C 16.4 °C 1017.8 hPa ESE 7.4 km/h 7.4 km/h 72 % 0.0 mm
19:24 21.6 °C 16.3 °C 1017.8 hPa ENE 7.4 km/h 7.4 km/h 72 % 0.0 mm
19:29 21.5 °C 16.2 °C 1017.8 hPa ESE 7.9 km/h 7.9 km/h 72 % 0.0 mm
19:34 21.4 °C 16.2 °C 1017.8 hPa ESE 7.4 km/h 7.4 km/h 72 % 0.0 mm
19:39 21.3 °C 16.1 °C 1017.8 hPa ESE 7.4 km/h 7.4 km/h 72 % 0.0 mm
19:44 21.2 °C 15.9 °C 1017.8 hPa SE 7.4 km/h 7.4 km/h 72 % 0.0 mm
19:49 21.1 °C 15.8 °C 1017.8 hPa NE 7.6 km/h 7.6 km/h 72 % 0.0 mm
19:54 21.0 °C 16.0 °C 1017.8 hPa ENE 5.6 km/h 5.6 km/h 73 % 0.0 mm
19:59 21.0 °C 16.0 °C 1017.8 hPa NNE 5.6 km/h 5.6 km/h 73 % 0.0 mm
20:04 20.9 °C 15.9 °C 1017.8 hPa East 6.9 km/h 6.9 km/h 73 % 0.0 mm
20:09 20.8 °C 15.8 °C 1017.8 hPa ENE 5.6 km/h 5.6 km/h 73 % 0.0 mm
20:14 20.7 °C 15.9 °C 1017.8 hPa ENE 7.4 km/h 7.4 km/h 74 % 0.0 mm
20:19 20.7 °C 15.9 °C 1017.8 hPa ESE 5.8 km/h 5.8 km/h 74 % 0.0 mm
20:24 20.6 °C 15.8 °C 1017.8 hPa ENE 3.2 km/h 3.5 km/h 74 % 0.0 mm
20:29 20.6 °C 16.0 °C 1017.8 hPa ENE 6.9 km/h 6.9 km/h 75 % 0.0 mm
20:34 20.5 °C 15.9 °C 1017.8 hPa ENE 3.7 km/h 3.7 km/h 75 % 0.0 mm
20:39 20.4 °C 15.8 °C 1017.8 hPa North 5.6 km/h 5.6 km/h 75 % 0.0 mm
20:44 20.4 °C 16.0 °C 1017.8 hPa NE 7.4 km/h 7.4 km/h 76 % 0.0 mm
20:49 20.4 °C 16.0 °C 1017.8 hPa ENE 7.4 km/h 7.4 km/h 76 % 0.0 mm
20:54 20.3 °C 15.9 °C 1017.8 hPa East 5.6 km/h 5.6 km/h 76 % 0.0 mm
20:58 20.2 °C 16.1 °C 1017.8 hPa ENE 9.3 km/h 9.3 km/h 77 % 0.0 mm
21:03 20.2 °C 16.1 °C 1017.8 hPa ESE 3.7 km/h 3.7 km/h 77 % 0.0 mm
21:08 20.1 °C 16.2 °C 1017.8 hPa SE 5.6 km/h 5.6 km/h 78 % 0.0 mm
21:13 20.1 °C 16.2 °C 1017.8 hPa ESE 4.2 km/h 4.2 km/h 78 % 0.0 mm
21:18 20.0 °C 16.2 °C 1017.8 hPa ESE 7.4 km/h 7.4 km/h 79 % 0.0 mm
21:23 20.0 °C 16.2 °C 1017.8 hPa East 7.4 km/h 7.4 km/h 79 % 0.0 mm
21:28 19.9 °C 16.2 °C 1017.8 hPa ESE 4.2 km/h 4.2 km/h 79 % 0.0 mm
21:33 19.9 °C 16.2 °C 1017.8 hPa East 1.9 km/h   79 % 0.0 mm
21:38 19.8 °C 15.8 °C 1017.8 hPa ENE 3.7 km/h 3.7 km/h 78 % 0.0 mm
21:43 19.7 °C 15.9 °C 1017.8 hPa NE 4.7 km/h 4.7 km/h 79 % 0.0 mm
21:48 19.6 °C 15.8 °C 1018.8 hPa ESE 3.7 km/h 3.7 km/h 79 % 0.0 mm
21:53 19.6 °C 15.8 °C 1018.8 hPa East 5.6 km/h 5.6 km/h 79 % 0.0 mm
21:58 19.6 °C 15.8 °C 1018.8 hPa Calm     79 % 0.0 mm
22:03 19.5 °C 15.8 °C 1018.8 hPa SSW 1.9 km/h 1.9 km/h 79 % 0.0 mm
22:08 19.2 °C 15.3 °C 1018.8 hPa SW 3.7 km/h 3.7 km/h 78 % 0.0 mm
22:13 19.1 °C 15.2 °C 1018.8 hPa SW 3.7 km/h 3.7 km/h 78 % 0.0 mm
22:18 19.0 °C 15.1 °C 1018.8 hPa SW 3.7 km/h 3.7 km/h 78 % 0.0 mm
22:23 18.9 °C 15.4 °C 1018.8 hPa Calm     80 % 0.0 mm
22:33 18.8 °C 15.3 °C 1018.8 hPa SW 2.6 km/h   80 % 0.0 mm
22:38 18.8 °C 15.3 °C 1018.8 hPa SW 3.7 km/h 3.7 km/h 80 % 0.0 mm
22:43 18.8 °C 15.3 °C 1018.8 hPa Calm     80 % 0.0 mm
22:48 18.8 °C 15.3 °C 1018.8 hPa SW 3.7 km/h 3.7 km/h 80 % 0.0 mm
22:53 18.8 °C 15.4 °C 1018.8 hPa Calm     81 % 0.0 mm
22:58 18.7 °C 15.4 °C 1018.8 hPa Calm     81 % 0.0 mm
23:03 18.7 °C 15.4 °C 1018.8 hPa Calm     81 % 0.0 mm
23:08 18.6 °C 15.3 °C 1018.8 hPa Calm     81 % 0.0 mm
23:13 18.6 °C 15.3 °C 1018.8 hPa Calm     81 % 0.0 mm
23:18 18.5 °C 15.2 °C 1018.8 hPa Calm     81 % 0.0 mm
23:23 18.5 °C 15.2 °C 1018.8 hPa Calm     81 % 0.0 mm
23:28 18.4 °C 15.1 °C 1018.8 hPa Calm     81 % 0.0 mm
23:33 18.5 °C 15.2 °C 1018.8 hPa Calm     81 % 0.0 mm
23:38 18.5 °C 15.2 °C 1018.8 hPa Calm     81 % 0.0 mm
23:43 18.5 °C 15.2 °C 1019.9 hPa Calm     81 % 0.0 mm
23:53 18.4 °C 15.1 °C 1019.9 hPa Calm     81 % 0.0 mm
23:58 18.4 °C 15.3 °C 1019.9 hPa Calm     82 % 0.0 mm
Meteo Sesrovires
Elogis d' Weather Underground - 3.5 mb

Guio original per  Jim McMurry - jmcmurry@mwt.net Adaptat per a la plantilla per  Wim van der Kuil - Leuven-Template.eu

Trobareu la nostra informacio del temps tambe a:

Weather Underground

AWEKAS